createdAt,value
2018-09-22T00:02:25.790Z,56.54
2018-09-22T00:04:54.792Z,54.28
2018-09-22T00:07:23.731Z,56.22
2018-09-22T00:09:52.621Z,53.83
2018-09-22T00:12:21.791Z,55.38
2018-09-22T00:14:50.680Z,55.37
2018-09-22T00:17:19.603Z,55.35
2018-09-22T00:19:48.652Z,55.91
2018-09-22T00:22:17.592Z,55.20
2018-09-22T00:24:46.492Z,55.88
2018-09-22T00:27:15.472Z,55.55
2018-09-22T00:29:44.316Z,54.67
2018-09-22T00:32:13.198Z,55.09
2018-09-22T00:34:42.145Z,54.97
2018-09-22T00:37:11.018Z,55.86
2018-09-22T00:39:39.924Z,55.79
2018-09-22T00:42:08.788Z,56.17
2018-09-22T00:44:37.818Z,56.47
2018-09-22T00:47:06.834Z,57.19
2018-09-22T00:49:35.713Z,55.58
2018-09-22T00:52:04.647Z,56.69
2018-09-22T00:54:33.589Z,55.37
2018-09-22T00:57:02.542Z,55.43
2018-09-22T00:59:31.496Z,55.39
2018-09-22T01:02:00.445Z,56.16
2018-09-22T01:04:29.409Z,56.16
2018-09-22T01:06:58.364Z,56.75
2018-09-22T01:09:27.282Z,56.48
2018-09-22T01:11:56.175Z,57.05
2018-09-22T01:14:25.079Z,56.59
2018-09-22T01:16:54.029Z,55.90
2018-09-22T01:19:22.908Z,56.47
2018-09-22T01:21:51.868Z,56.71
2018-09-22T01:24:20.759Z,56.39
2018-09-22T01:26:49.627Z,55.77
2018-09-22T01:29:18.583Z,55.34
2018-09-22T01:31:47.470Z,55.76
2018-09-22T01:34:17.136Z,56.03
2018-09-22T01:36:46.052Z,55.26
2018-09-22T01:39:18.711Z,55.35
2018-09-22T01:41:47.964Z,55.41
2018-09-22T01:44:17.953Z,55.72
2018-09-22T01:46:51.742Z,55.65
2018-09-22T01:49:20.903Z,56.05
2018-09-22T01:51:50.259Z,55.84
2018-09-22T01:54:25.174Z,56.55
2018-09-22T01:56:54.364Z,56.18
2018-09-22T01:59:24.231Z,55.82
2018-09-22T02:01:53.644Z,55.98
2018-09-22T02:04:22.740Z,56.94
2018-09-22T02:06:52.567Z,56.53
2018-09-22T02:09:21.771Z,56.47
2018-09-22T02:11:50.986Z,56.70
2018-09-22T02:14:20.044Z,56.22
2018-09-22T02:16:49.136Z,56.37
2018-09-22T02:19:18.307Z,55.82
2018-09-22T02:21:47.424Z,55.91
2018-09-22T02:24:16.456Z,56.54
2018-09-22T02:26:45.651Z,57.21
2018-09-22T02:29:14.809Z,56.45
2018-09-22T02:31:44.030Z,55.94
2018-09-22T02:34:13.296Z,56.45
2018-09-22T02:36:42.566Z,57.04
2018-09-22T02:39:12.176Z,57.29
2018-09-22T02:41:41.255Z,57.02
2018-09-22T02:44:10.769Z,56.55
2018-09-22T02:46:40.025Z,56.35
2018-09-22T02:49:09.274Z,57.62
2018-09-22T02:51:38.534Z,57.96
2018-09-22T02:54:07.843Z,56.19
2018-09-22T02:56:37.014Z,56.82
2018-09-22T02:59:06.300Z,56.91
2018-09-22T03:01:36.212Z,57.61
2018-09-22T03:04:05.505Z,56.84
2018-09-22T03:06:34.476Z,58.48
2018-09-22T03:09:04.034Z,57.90
2018-09-22T03:11:33.293Z,57.46
2018-09-22T03:14:02.337Z,58.18
2018-09-22T03:16:31.723Z,56.66
2018-09-22T03:19:00.974Z,57.21
2018-09-22T03:21:30.040Z,56.84
2018-09-22T03:23:59.135Z,56.62
2018-09-22T03:26:28.346Z,56.36
2018-09-22T03:28:57.694Z,57.22
2018-09-22T03:31:27.061Z,56.80
2018-09-22T03:33:56.365Z,58.48
2018-09-22T03:36:25.546Z,59.72
2018-09-22T03:38:54.897Z,57.68
2018-09-22T03:41:24.019Z,57.58
2018-09-22T03:43:53.151Z,58.06
2018-09-22T03:46:22.472Z,59.38
2018-09-22T03:48:51.635Z,57.81
2018-09-22T03:51:21.064Z,56.48
2018-09-22T03:53:50.340Z,58.72
2018-09-22T03:56:19.712Z,57.95
2018-09-22T03:58:48.940Z,59.02
2018-09-22T04:01:18.307Z,60.16
2018-09-22T04:03:47.448Z,59.58
2018-09-22T04:06:16.482Z,58.42
2018-09-22T04:08:45.642Z,58.97
2018-09-22T04:11:14.935Z,57.73
2018-09-22T04:13:44.315Z,58.46
2018-09-22T04:16:13.631Z,59.34
2018-09-22T04:18:42.883Z,59.20
2018-09-22T04:21:11.779Z,59.37
2018-09-22T04:23:40.719Z,57.15
2018-09-22T04:26:09.660Z,56.99
2018-09-22T04:28:38.567Z,56.94
2018-09-22T04:31:07.572Z,56.95
2018-09-22T04:33:36.439Z,58.95
2018-09-22T04:36:05.346Z,57.80
2018-09-22T04:38:34.248Z,57.40
2018-09-22T04:41:03.255Z,58.09
2018-09-22T04:43:32.185Z,58.40
2018-09-22T04:46:01.185Z,56.86
2018-09-22T04:48:30.225Z,58.26
2018-09-22T04:50:59.127Z,58.82
2018-09-22T04:53:28.047Z,58.92
2018-09-22T04:55:56.958Z,57.32
2018-09-22T04:58:25.880Z,58.73
2018-09-22T05:00:54.752Z,57.95
2018-09-22T05:03:23.736Z,58.83
2018-09-22T05:05:52.614Z,57.68
2018-09-22T05:08:21.873Z,57.39
2018-09-22T05:10:51.215Z,57.04
2018-09-22T05:13:20.536Z,57.05
2018-09-22T05:15:49.820Z,57.26
2018-09-22T05:18:18.840Z,56.63
2018-09-22T05:20:48.018Z,56.98
2018-09-22T05:23:17.196Z,56.77
2018-09-22T05:25:46.564Z,56.20
2018-09-22T05:28:15.816Z,55.86
2018-09-22T05:30:45.100Z,55.86
2018-09-22T05:33:14.244Z,55.86
2018-09-22T05:35:43.516Z,59.00
2018-09-22T05:38:12.735Z,59.05
2018-09-22T05:40:42.000Z,56.37
2018-09-22T05:43:11.219Z,56.60
2018-09-22T05:45:40.159Z,57.13
2018-09-22T05:48:09.092Z,57.23
2018-09-22T05:50:38.213Z,56.07
2018-09-22T05:53:07.500Z,54.72
2018-09-22T05:55:36.410Z,54.03
2018-09-22T05:58:05.474Z,54.23
2018-09-22T06:00:37.110Z,53.87
2018-09-22T06:03:07.184Z,53.61
2018-09-22T06:05:36.419Z,53.34
2018-09-22T06:08:05.375Z,55.14
2018-09-22T06:10:34.818Z,53.71
2018-09-22T06:13:03.979Z,53.32
2018-09-22T06:15:32.870Z,53.65
2018-09-22T06:18:01.771Z,53.81
2018-09-22T06:20:30.647Z,53.27
2018-09-22T06:22:59.617Z,53.27
2018-09-22T06:25:28.471Z,52.28
2018-09-22T06:27:57.443Z,51.98
2018-09-22T06:30:26.324Z,51.75
2018-09-22T06:32:55.219Z,51.89
2018-09-22T06:35:24.190Z,52.55
2018-09-22T06:37:53.543Z,51.69
2018-09-22T06:40:22.490Z,51.45
2018-09-22T06:42:51.488Z,51.05
2018-09-22T06:45:20.486Z,50.94
2018-09-22T06:47:49.450Z,51.00
2018-09-22T06:50:18.510Z,51.41
2018-09-22T06:52:47.444Z,51.63
2018-09-22T06:55:16.539Z,54.66
2018-09-22T06:57:45.460Z,54.80
2018-09-22T07:00:14.384Z,59.27
2018-09-22T07:02:43.332Z,57.88
2018-09-22T07:05:12.226Z,61.75
2018-09-22T07:07:41.122Z,61.25
2018-09-22T07:10:10.081Z,52.86
2018-09-22T07:12:39.010Z,62.29
2018-09-22T07:15:08.076Z,60.60
2018-09-22T07:17:37.020Z,61.93
2018-09-22T07:20:05.988Z,58.13
2018-09-22T07:22:39.923Z,57.86
2018-09-22T07:25:08.815Z,52.57
2018-09-22T07:27:37.688Z,52.46
2018-09-22T07:30:06.712Z,53.03
2018-09-22T07:32:35.610Z,50.20
2018-09-22T07:35:04.626Z,48.73
2018-09-22T07:37:33.564Z,51.66
2018-09-22T07:40:02.523Z,48.63
2018-09-22T07:42:31.543Z,52.76
2018-09-22T07:45:00.435Z,50.47
2018-09-22T07:47:29.323Z,52.36
2018-09-22T07:49:58.286Z,50.63
2018-09-22T07:52:27.192Z,51.16
2018-09-22T07:54:56.071Z,50.58
2018-09-22T07:57:24.959Z,51.49
2018-09-22T07:59:53.840Z,49.07
2018-09-22T08:02:22.809Z,53.35
2018-09-22T08:04:51.675Z,55.22
2018-09-22T08:07:20.644Z,52.34
2018-09-22T08:09:49.626Z,48.39
2018-09-22T08:12:18.478Z,49.81
2018-09-22T08:14:47.376Z,50.76
2018-09-22T08:17:16.238Z,49.41
2018-09-22T08:19:45.241Z,47.43
2018-09-22T08:22:14.112Z,47.69
2018-09-22T08:24:43.001Z,47.01
2018-09-22T08:27:11.980Z,48.43
2018-09-22T08:29:40.869Z,47.71
2018-09-22T08:32:09.859Z,49.30
2018-09-22T08:34:38.812Z,54.08
2018-09-22T08:37:07.955Z,52.70
2018-09-22T08:39:36.678Z,53.24
2018-09-22T08:42:05.587Z,50.07
2018-09-22T08:44:34.513Z,48.43
2018-09-22T08:47:03.448Z,49.11
2018-09-22T08:49:32.439Z,47.38
2018-09-22T08:52:01.307Z,50.48
2018-09-22T08:54:30.203Z,48.17
2018-09-22T08:56:59.083Z,47.79
2018-09-22T08:59:27.972Z,48.02
2018-09-22T09:01:56.896Z,49.00
2018-09-22T09:04:25.867Z,47.06
2018-09-22T09:06:54.751Z,45.31
2018-09-22T09:09:23.700Z,45.32
2018-09-22T09:11:52.562Z,45.55
2018-09-22T09:14:21.431Z,46.07
2018-09-22T09:16:50.367Z,45.75
2018-09-22T09:19:19.238Z,45.73
2018-09-22T09:21:48.142Z,46.04
2018-09-22T09:24:17.924Z,45.47
2018-09-22T09:26:46.835Z,45.84
2018-09-22T09:29:15.718Z,44.90
2018-09-22T09:31:44.766Z,46.46
2018-09-22T09:34:13.627Z,44.06
2018-09-22T09:36:42.550Z,44.11
2018-09-22T09:39:11.454Z,44.06
2018-09-22T09:41:40.383Z,44.10
2018-09-22T09:44:09.460Z,44.03
2018-09-22T09:46:38.449Z,43.95
2018-09-22T09:49:07.344Z,43.39
2018-09-22T09:51:36.208Z,45.15
2018-09-22T09:54:05.193Z,45.31
2018-09-22T09:56:34.102Z,43.58
2018-09-22T09:59:03.011Z,43.39
2018-09-22T10:01:32.000Z,43.77
2018-09-22T10:04:00.894Z,42.73
2018-09-22T10:06:29.788Z,42.96
2018-09-22T10:08:58.692Z,42.27
2018-09-22T10:11:27.638Z,41.61
2018-09-22T10:13:56.532Z,42.24
2018-09-22T10:16:25.427Z,41.10
2018-09-22T10:18:54.308Z,41.36
2018-09-22T10:21:23.216Z,41.48
2018-09-22T10:23:52.104Z,42.83
2018-09-22T10:26:21.127Z,40.82
2018-09-22T10:28:50.071Z,40.25
2018-09-22T10:31:18.951Z,40.00
2018-09-22T10:33:47.991Z,41.24
2018-09-22T10:36:16.887Z,40.94
2018-09-22T10:38:46.123Z,39.47
2018-09-22T10:41:15.010Z,39.95
2018-09-22T10:43:43.889Z,38.30
2018-09-22T10:46:12.793Z,39.31
2018-09-22T10:48:41.689Z,39.70
2018-09-22T10:51:10.563Z,39.63
2018-09-22T10:53:39.419Z,39.48
2018-09-22T10:56:08.427Z,39.86
2018-09-22T10:58:37.340Z,39.71
2018-09-22T11:01:06.329Z,38.03
2018-09-22T11:03:35.239Z,39.19
2018-09-22T11:06:04.180Z,38.82
2018-09-22T11:08:33.083Z,37.36
2018-09-22T11:11:01.978Z,38.77
2018-09-22T11:13:30.953Z,39.68
2018-09-22T11:15:59.998Z,39.21
2018-09-22T11:18:29.307Z,36.63
2018-09-22T11:20:58.214Z,36.82
2018-09-22T11:23:27.147Z,35.50
2018-09-22T11:25:56.061Z,37.46
2018-09-22T11:28:24.956Z,35.64
2018-09-22T11:30:53.840Z,34.92
2018-09-22T11:33:22.706Z,34.52
2018-09-22T11:35:51.654Z,34.04
2018-09-22T11:38:20.572Z,34.94
2018-09-22T11:40:49.430Z,33.95
2018-09-22T11:43:18.330Z,34.33
2018-09-22T11:45:47.203Z,34.32
2018-09-22T11:48:16.144Z,33.64
2018-09-22T11:50:45.072Z,32.03
2018-09-22T11:53:13.941Z,32.40
2018-09-22T11:55:42.836Z,32.17
2018-09-22T11:58:11.768Z,34.37
2018-09-22T12:00:40.990Z,33.05
2018-09-22T12:03:10.267Z,32.22
2018-09-22T12:05:39.169Z,30.97
2018-09-22T12:08:08.067Z,32.63
2018-09-22T12:10:37.371Z,31.50
2018-09-22T12:13:06.334Z,33.62
2018-09-22T12:15:35.222Z,32.61
2018-09-22T12:18:04.098Z,35.11
2018-09-22T12:20:33.097Z,32.79
2018-09-22T12:23:02.024Z,32.18
2018-09-22T12:25:30.902Z,32.69
2018-09-22T12:27:59.784Z,32.46
2018-09-22T12:30:28.712Z,35.75
2018-09-22T12:32:57.586Z,32.98
2018-09-22T12:35:26.486Z,32.37
2018-09-22T12:37:55.392Z,33.72
2018-09-22T12:40:24.279Z,32.39
2018-09-22T12:42:53.218Z,32.37
2018-09-22T12:45:22.199Z,32.41
2018-09-22T12:47:51.070Z,31.66
2018-09-22T12:50:20.053Z,32.01
2018-09-22T12:52:48.931Z,33.32
2018-09-22T12:55:17.861Z,32.46
2018-09-22T12:57:46.796Z,32.76
2018-09-22T13:00:15.695Z,33.23
2018-09-22T13:02:44.620Z,32.19
2018-09-22T13:05:13.608Z,33.47
2018-09-22T13:07:42.500Z,33.24
2018-09-22T13:10:11.432Z,34.11
2018-09-22T13:12:40.325Z,32.69
2018-09-22T13:15:09.203Z,33.61
2018-09-22T13:17:38.103Z,33.38
2018-09-22T13:20:07.135Z,33.47
2018-09-22T13:22:36.070Z,32.68
2018-09-22T13:25:05.024Z,33.19
2018-09-22T13:27:33.954Z,31.68
2018-09-22T13:30:02.856Z,30.91
2018-09-22T13:32:31.724Z,31.83
2018-09-22T13:35:00.647Z,30.00
2018-09-22T13:37:29.542Z,30.58
2018-09-22T13:39:58.429Z,30.08
2018-09-22T13:42:27.287Z,31.32
2018-09-22T13:44:56.255Z,30.02
2018-09-22T13:47:25.252Z,31.79
2018-09-22T13:49:54.136Z,32.52
2018-09-22T13:52:23.273Z,33.04
2018-09-22T13:54:52.195Z,33.10
2018-09-22T13:57:21.088Z,30.74
2018-09-22T13:59:49.962Z,33.26
2018-09-22T14:02:18.850Z,32.83
2018-09-22T14:04:47.723Z,30.05
2018-09-22T14:07:16.779Z,30.83
2018-09-22T14:09:45.662Z,31.44
2018-09-22T14:12:14.598Z,31.34
2018-09-22T14:14:43.515Z,33.13
2018-09-22T14:17:12.424Z,32.13
2018-09-22T14:19:41.366Z,32.33
2018-09-22T14:22:10.357Z,33.72
2018-09-22T14:24:39.290Z,30.45
2018-09-22T14:27:08.287Z,34.17
2018-09-22T14:29:37.267Z,32.58
2018-09-22T14:32:06.260Z,32.45
2018-09-22T14:34:35.245Z,33.58
2018-09-22T14:37:04.150Z,32.54
2018-09-22T14:39:33.118Z,34.00
2018-09-22T14:42:02.032Z,33.44
2018-09-22T14:44:30.912Z,33.32
2018-09-22T14:47:01.090Z,33.17
2018-09-22T14:49:30.039Z,34.39
2018-09-22T14:51:58.987Z,34.65
2018-09-22T14:54:27.865Z,33.78
2018-09-22T14:56:59.980Z,34.95
2018-09-22T14:59:28.928Z,34.50
2018-09-22T15:01:57.831Z,35.18
2018-09-22T15:04:26.768Z,33.54
2018-09-22T15:06:55.679Z,35.21
2018-09-22T15:09:24.576Z,34.37
2018-09-22T15:11:53.540Z,34.89
2018-09-22T15:14:22.504Z,33.79
2018-09-22T15:16:51.391Z,34.59
2018-09-22T15:19:20.309Z,34.69
2018-09-22T15:21:49.305Z,39.26
2018-09-22T15:24:18.218Z,39.04
2018-09-22T15:26:47.174Z,37.99
2018-09-22T15:29:16.078Z,38.19
2018-09-22T15:31:44.981Z,38.75
2018-09-22T15:34:13.906Z,37.86
2018-09-22T15:36:42.895Z,38.20
2018-09-22T15:39:11.771Z,39.13
2018-09-22T15:41:40.701Z,39.38
2018-09-22T15:44:09.578Z,39.36
2018-09-22T15:46:38.492Z,40.15
2018-09-22T15:49:07.430Z,39.67
2018-09-22T15:51:36.372Z,39.57
2018-09-22T15:54:05.341Z,42.72
2018-09-22T15:56:34.232Z,41.71
2018-09-22T15:59:03.251Z,42.61
2018-09-22T16:01:32.132Z,39.98
2018-09-22T16:04:01.094Z,40.95
2018-09-22T16:06:30.045Z,41.51
2018-09-22T16:08:59.059Z,42.06
2018-09-22T16:11:27.939Z,41.40
2018-09-22T16:13:56.917Z,42.98
2018-09-22T16:16:25.820Z,43.27
2018-09-22T16:18:54.728Z,41.50
2018-09-22T16:21:23.681Z,41.95
2018-09-22T16:23:52.563Z,43.12
2018-09-22T16:26:21.455Z,43.91
2018-09-22T16:28:50.467Z,44.09
2018-09-22T16:31:19.361Z,43.69
2018-09-22T16:33:48.270Z,45.56
2018-09-22T16:36:17.171Z,42.67
2018-09-22T16:38:46.083Z,46.03
2018-09-22T16:41:15.045Z,42.96
2018-09-22T16:43:44.024Z,47.34
2018-09-22T16:46:12.983Z,48.32
2018-09-22T16:48:41.932Z,51.29
2018-09-22T16:51:10.834Z,46.39
2018-09-22T16:53:39.731Z,50.78
2018-09-22T16:56:08.638Z,47.82
2018-09-22T16:58:37.608Z,50.38
2018-09-22T17:01:06.461Z,51.38
2018-09-22T17:03:35.363Z,52.54
2018-09-22T17:06:04.323Z,50.15
2018-09-22T17:08:33.232Z,54.31
2018-09-22T17:11:02.129Z,54.90
2018-09-22T17:13:31.051Z,53.97
2018-09-22T17:15:59.993Z,54.40
2018-09-22T17:18:28.898Z,54.32
2018-09-22T17:20:57.794Z,53.49
2018-09-22T17:23:26.750Z,48.52
2018-09-22T17:25:55.640Z,51.72
2018-09-22T17:28:24.604Z,52.25
2018-09-22T17:30:53.475Z,51.96
2018-09-22T17:33:22.966Z,51.98
2018-09-22T17:35:53.021Z,52.51
2018-09-22T17:38:21.904Z,51.18
2018-09-22T17:40:50.804Z,49.68
2018-09-22T17:43:19.763Z,48.95
2018-09-22T17:45:48.710Z,52.30
2018-09-22T17:48:17.718Z,52.25
2018-09-22T17:50:46.702Z,49.64
2018-09-22T17:53:15.675Z,52.37
2018-09-22T17:55:44.602Z,51.41
2018-09-22T17:58:13.507Z,51.46
2018-09-22T18:00:42.391Z,51.07
2018-09-22T18:03:11.300Z,51.47
2018-09-22T18:05:40.220Z,50.95
2018-09-22T18:08:09.124Z,51.43
2018-09-22T18:10:38.065Z,51.21
2018-09-22T18:13:07.056Z,50.34
2018-09-22T18:15:35.952Z,51.70
2018-09-22T18:18:04.947Z,51.38
2018-09-22T18:20:33.896Z,50.19
2018-09-22T18:23:02.812Z,49.79
2018-09-22T18:25:31.731Z,49.87
2018-09-22T18:28:00.628Z,50.28
2018-09-22T18:30:29.570Z,49.62
2018-09-22T18:32:58.530Z,49.44
2018-09-22T18:35:27.481Z,50.28
2018-09-22T18:37:56.386Z,49.98
2018-09-22T18:40:25.326Z,49.86
2018-09-22T18:42:54.224Z,49.63
2018-09-22T18:45:23.151Z,50.75
2018-09-22T18:47:52.064Z,50.33
2018-09-22T18:50:21.152Z,50.35
2018-09-22T18:52:50.052Z,50.14
2018-09-22T18:55:18.985Z,50.32
2018-09-22T18:57:47.971Z,50.52
2018-09-22T19:00:16.972Z,49.72
2018-09-22T19:02:46.052Z,49.71
2018-09-22T19:05:15.069Z,49.36
2018-09-22T19:07:43.964Z,50.34
2018-09-22T19:10:12.899Z,49.67
2018-09-22T19:12:41.863Z,49.36
2018-09-22T19:15:15.831Z,50.35
2018-09-22T19:17:55.372Z,49.65
2018-09-22T19:20:42.475Z,49.88
2018-09-22T19:23:16.962Z,49.49
2018-09-22T19:25:49.501Z,49.59
2018-09-22T19:28:23.441Z,50.12
2018-09-22T19:30:53.921Z,50.09
2018-09-22T19:33:30.338Z,50.13
2018-09-22T19:37:03.103Z,49.76
2018-09-22T19:40:09.526Z,49.81
2018-09-22T19:42:48.279Z,49.88
2018-09-22T19:45:30.181Z,50.15
2018-09-22T19:48:05.719Z,49.65
2018-09-22T19:50:39.030Z,50.27
2018-09-22T19:53:07.969Z,50.52
2018-09-22T19:55:36.863Z,50.83
2018-09-22T19:58:05.896Z,50.68
2018-09-22T20:00:34.888Z,49.67
2018-09-22T20:03:03.783Z,50.87
2018-09-22T20:05:32.675Z,50.08
2018-09-22T20:08:01.628Z,51.08
2018-09-22T20:25:38.212Z,48.44
2018-09-22T20:28:07.163Z,47.63
2018-09-22T20:30:36.311Z,48.15
2018-09-22T20:33:05.299Z,48.57
2018-09-22T20:35:34.269Z,49.42
2018-09-22T20:38:03.175Z,48.57
2018-09-22T20:40:32.081Z,49.47
2018-09-22T20:43:00.981Z,49.12
2018-09-22T20:45:29.873Z,48.46
2018-09-22T20:47:58.839Z,48.66
2018-09-22T20:50:27.831Z,49.39
2018-09-22T20:52:56.694Z,50.12
2018-09-22T20:55:25.613Z,50.30
2018-09-22T20:57:54.529Z,49.30
2018-09-22T21:00:23.558Z,49.95
2018-09-22T21:02:52.474Z,51.49
2018-09-22T21:05:21.460Z,50.65
2018-09-22T21:07:50.471Z,50.46
2018-09-22T21:10:20.304Z,50.43
2018-09-22T21:12:49.223Z,49.68
2018-09-22T21:15:18.112Z,50.38
2018-09-22T21:17:47.062Z,50.71
2018-09-22T21:20:15.948Z,50.17
2018-09-22T21:22:44.861Z,50.40
2018-09-22T21:25:13.759Z,50.75
2018-09-22T21:27:42.816Z,51.40
2018-09-22T21:30:11.711Z,49.96
2018-09-22T21:32:40.608Z,50.91
2018-09-22T21:35:09.497Z,50.26
2018-09-22T21:37:38.419Z,49.73
2018-09-22T21:40:07.405Z,49.85
2018-09-22T21:42:36.294Z,49.71
2018-09-22T21:45:05.498Z,50.34
2018-09-22T21:47:35.249Z,50.39
2018-09-22T21:50:04.202Z,51.03
2018-09-22T21:52:33.123Z,50.09
2018-09-22T21:55:02.174Z,50.50
2018-09-22T21:57:31.265Z,50.89
2018-09-22T22:00:00.241Z,51.27
2018-09-22T22:02:29.323Z,50.98
2018-09-22T22:05:00.049Z,51.30
2018-09-22T22:07:29.411Z,52.72
2018-09-22T22:09:58.519Z,51.93
2018-09-22T22:12:27.559Z,51.37
2018-09-22T22:14:56.605Z,51.06
2018-09-22T22:17:25.583Z,52.00
2018-09-22T22:19:55.112Z,51.91
2018-09-22T22:22:24.109Z,51.22
2018-09-22T22:24:53.091Z,51.83
2018-09-22T22:27:22.081Z,51.88
2018-09-22T22:29:51.104Z,52.67
2018-09-22T22:32:20.454Z,52.03
2018-09-22T22:34:49.465Z,53.17
2018-09-22T22:37:18.584Z,52.43
2018-09-22T22:39:47.607Z,53.10
2018-09-22T22:42:16.639Z,52.64
2018-09-22T22:44:45.686Z,52.68
2018-09-22T22:47:14.754Z,53.05
2018-09-22T22:49:43.756Z,53.53
2018-09-22T22:52:12.808Z,53.58
2018-09-22T22:54:41.799Z,54.19
2018-09-22T22:57:10.738Z,55.09
2018-09-22T22:59:39.692Z,55.03
2018-09-22T23:02:08.639Z,55.99
2018-09-22T23:04:37.773Z,55.56
2018-09-22T23:07:06.914Z,54.89
2018-09-22T23:09:35.921Z,55.72
2018-09-22T23:12:04.972Z,57.13
2018-09-22T23:14:33.882Z,56.80
2018-09-22T23:17:02.775Z,56.00
2018-09-22T23:19:31.789Z,56.65
2018-09-22T23:22:00.693Z,55.81
2018-09-22T23:24:29.642Z,57.05
2018-09-22T23:26:58.589Z,56.72
2018-09-22T23:29:27.498Z,56.66
2018-09-22T23:31:56.407Z,59.38
2018-09-22T23:34:25.363Z,60.10
2018-09-22T23:36:54.408Z,60.12
2018-09-22T23:39:23.400Z,62.51
2018-09-22T23:41:52.295Z,61.19
2018-09-22T23:44:21.252Z,61.40
2018-09-22T23:46:50.220Z,61.61
2018-09-22T23:49:19.206Z,60.36
2018-09-22T23:51:48.094Z,60.41
2018-09-22T23:54:17.033Z,60.22
2018-09-22T23:56:45.910Z,62.72
2018-09-22T23:59:14.875Z,61.57
